TimeMST,TemperatureF,Dew PointF,Humidity,Sea Level PressureIn,VisibilityMPH,Wind Direction,Wind SpeedMPH,Gust SpeedMPH,PrecipitationIn,Events,Conditions,WindDirDegrees,DateUTC
12:55 AM,64.9,42.1,43,29.97,10.0,South,4.6,-,N/A,,Mostly Cloudy,190,2013-03-20 07:55:00
1:55 AM,64.0,42.1,45,29.97,10.0,South,4.6,-,N/A,,Scattered Clouds,180,2013-03-20 08:55:00
2:55 AM,63.0,41.0,45,29.95,10.0,SSE,4.6,-,N/A,,Scattered Clouds,160,2013-03-20 09:55:00
3:55 AM,63.0,41.0,45,29.94,10.0,Calm,Calm,-,N/A,,Scattered Clouds,0,2013-03-20 10:55:00
4:55 AM,63.0,43.0,48,29.94,10.0,Calm,Calm,-,N/A,,Mostly Cloudy,0,2013-03-20 11:55:00
5:55 AM,63.0,41.0,45,29.93,10.0,Calm,Calm,-,N/A,,Mostly Cloudy,0,2013-03-20 12:55:00
6:55 AM,63.0,41.0,45,29.95,10.0,ENE,3.5,-,N/A,,Mostly Cloudy,60,2013-03-20 13:55:00
7:55 AM,64.9,44.1,47,29.97,10.0,Calm,Calm,-,N/A,,Mostly Cloudy,0,2013-03-20 14:55:00
8:55 AM,71.1,42.1,35,29.99,10.0,Calm,Calm,-,N/A,,Mostly Cloudy,0,2013-03-20 15:55:00
9:55 AM,73.9,39.9,29,29.98,10.0,South,3.5,-,N/A,,Mostly Cloudy,180,2013-03-20 16:55:00
10:55 AM,78.1,41.0,27,29.97,10.0,Calm,Calm,-,N/A,,Mostly Cloudy,0,2013-03-20 17:55:00
11:55 AM,82.0,36.0,19,29.95,10.0,Calm,Calm,-,N/A,,Smoke,0,2013-03-20 18:55:00
12:55 PM,84.9,33.1,16,29.92,10.0,WSW,5.8,-,N/A,,Mostly Cloudy,240,2013-03-20 19:55:00
1:55 PM,87.1,34.0,15,29.89,10.0,WSW,6.9,-,N/A,,Mostly Cloudy,240,2013-03-20 20:55:00
2:55 PM,88.0,34.0,15,29.86,10.0,West,9.2,-,N/A,,Mostly Cloudy,260,2013-03-20 21:55:00
3:55 PM,87.1,37.0,17,29.84,10.0,SW,8.1,-,N/A,,Mostly Cloudy,220,2013-03-20 22:55:00
4:55 PM,87.1,37.0,17,29.82,10.0,WSW,6.9,-,N/A,,Mostly Cloudy,240,2013-03-20 23:55:00
5:55 PM,86.0,39.0,19,29.81,10.0,SW,6.9,-,N/A,,Mostly Cloudy,230,2013-03-21 00:55:00
6:55 PM,82.0,44.1,26,29.81,10.0,WSW,6.9,-,N/A,,Mostly Cloudy,250,2013-03-21 01:55:00
7:55 PM,79.0,46.0,31,29.83,10.0,West,5.8,-,N/A,,Mostly Cloudy,280,2013-03-21 02:55:00
8:55 PM,77.0,32.0,19,29.84,10.0,West,15.0,-,N/A,,Mostly Cloudy,280,2013-03-21 03:55:00
9:55 PM,75.0,28.0,18,29.83,10.0,West,9.2,-,N/A,,Mostly Cloudy,270,2013-03-21 04:55:00
10:55 PM,71.1,34.0,26,29.83,10.0,WSW,5.8,-,N/A,,Mostly Cloudy,250,2013-03-21 05:55:00
11:55 PM,69.1,34.0,27,29.82,10.0,WSW,8.1,-,N/A,,Mostly Cloudy,240,2013-03-21 06:55:00